sensor_id;sensor_type;location;lat;lon;timestamp;temperature;humidity
12386;DHT22;6257;57.634;18.310;2022-08-19T00:01:17;18.90;99.90
12386;DHT22;6257;57.634;18.310;2022-08-19T00:03:44;18.90;99.90
12386;DHT22;6257;57.634;18.310;2022-08-19T00:06:11;18.90;99.90
12386;DHT22;6257;57.634;18.310;2022-08-19T00:08:38;18.80;99.90
12386;DHT22;6257;57.634;18.310;2022-08-19T00:11:05;18.80;99.90
12386;DHT22;6257;57.634;18.310;2022-08-19T00:13:33;18.80;99.90
12386;DHT22;6257;57.634;18.310;2022-08-19T00:16:00;18.80;99.90
12386;DHT22;6257;57.634;18.310;2022-08-19T00:18:29;18.80;99.90
12386;DHT22;6257;57.634;18.310;2022-08-19T00:20:56;18.80;99.90
12386;DHT22;6257;57.634;18.310;2022-08-19T00:23:23;18.70;99.90
12386;DHT22;6257;57.634;18.310;2022-08-19T00:25:50;18.70;99.90
12386;DHT22;6257;57.634;18.310;2022-08-19T00:28:18;18.70;99.90
12386;DHT22;6257;57.634;18.310;2022-08-19T00:30:46;18.40;99.90
12386;DHT22;6257;57.634;18.310;2022-08-19T00:33:13;18.60;99.90
12386;DHT22;6257;57.634;18.310;2022-08-19T00:35:43;18.70;99.90
12386;DHT22;6257;57.634;18.310;2022-08-19T00:38:10;18.60;99.90
12386;DHT22;6257;57.634;18.310;2022-08-19T00:40:37;18.60;99.90
12386;DHT22;6257;57.634;18.310;2022-08-19T00:43:08;18.60;99.90
12386;DHT22;6257;57.634;18.310;2022-08-19T00:45:36;18.60;99.90
12386;DHT22;6257;57.634;18.310;2022-08-19T00:48:03;18.60;99.90
12386;DHT22;6257;57.634;18.310;2022-08-19T00:50:31;18.60;99.90
12386;DHT22;6257;57.634;18.310;2022-08-19T00:53:00;18.60;99.90
12386;DHT22;6257;57.634;18.310;2022-08-19T00:55:30;18.50;99.90
12386;DHT22;6257;57.634;18.310;2022-08-19T00:58:02;18.50;99.90
12386;DHT22;6257;57.634;18.310;2022-08-19T01:00:31;18.50;99.90
12386;DHT22;6257;57.634;18.310;2022-08-19T01:03:02;18.50;99.90
12386;DHT22;6257;57.634;18.310;2022-08-19T01:05:30;18.60;99.90
12386;DHT22;6257;57.634;18.310;2022-08-19T01:08:00;18.60;99.90
12386;DHT22;6257;57.634;18.310;2022-08-19T01:10:30;18.60;99.90
12386;DHT22;6257;57.634;18.310;2022-08-19T01:12:59;18.60;99.90
12386;DHT22;6257;57.634;18.310;2022-08-19T01:15:31;18.60;99.90
12386;DHT22;6257;57.634;18.310;2022-08-19T01:18:01;18.60;99.90
12386;DHT22;6257;57.634;18.310;2022-08-19T01:20:30;18.60;99.90
12386;DHT22;6257;57.634;18.310;2022-08-19T01:23:02;18.70;99.90
12386;DHT22;6257;57.634;18.310;2022-08-19T01:25:33;18.80;99.90
12386;DHT22;6257;57.634;18.310;2022-08-19T01:28:02;18.80;99.90
12386;DHT22;6257;57.634;18.310;2022-08-19T01:30:32;18.80;99.90
12386;DHT22;6257;57.634;18.310;2022-08-19T01:33:00;18.80;99.90
12386;DHT22;6257;57.634;18.310;2022-08-19T01:35:31;18.90;99.90
12386;DHT22;6257;57.634;18.310;2022-08-19T01:38:03;19.00;99.90
12386;DHT22;6257;57.634;18.310;2022-08-19T01:40:35;19.00;99.90
12386;DHT22;6257;57.634;18.310;2022-08-19T01:43:03;18.90;99.90
12386;DHT22;6257;57.634;18.310;2022-08-19T01:45:33;18.90;99.90
12386;DHT22;6257;57.634;18.310;2022-08-19T01:48:00;18.90;99.90
12386;DHT22;6257;57.634;18.310;2022-08-19T01:50:29;18.80;99.90
12386;DHT22;6257;57.634;18.310;2022-08-19T01:52:56;18.80;99.90
12386;DHT22;6257;57.634;18.310;2022-08-19T01:55:26;18.80;99.90
12386;DHT22;6257;57.634;18.310;2022-08-19T01:57:56;18.70;99.90
12386;DHT22;6257;57.634;18.310;2022-08-19T02:00:26;18.70;99.90
12386;DHT22;6257;57.634;18.310;2022-08-19T02:02:54;18.70;99.90
12386;DHT22;6257;57.634;18.310;2022-08-19T02:05:22;18.70;99.90
12386;DHT22;6257;57.634;18.310;2022-08-19T02:07:49;18.60;99.90
12386;DHT22;6257;57.634;18.310;2022-08-19T02:10:19;18.60;99.90
12386;DHT22;6257;57.634;18.310;2022-08-19T02:12:49;18.60;99.90
12386;DHT22;6257;57.634;18.310;2022-08-19T02:15:17;18.50;99.90
12386;DHT22;6257;57.634;18.310;2022-08-19T02:17:46;18.50;99.90
12386;DHT22;6257;57.634;18.310;2022-08-19T02:20:14;18.50;99.90
12386;DHT22;6257;57.634;18.310;2022-08-19T02:22:42;18.40;99.90
12386;DHT22;6257;57.634;18.310;2022-08-19T02:25:09;18.40;99.90
12386;DHT22;6257;57.634;18.310;2022-08-19T02:27:37;18.40;99.90
12386;DHT22;6257;57.634;18.310;2022-08-19T02:30:07;18.40;99.90
12386;DHT22;6257;57.634;18.310;2022-08-19T02:32:35;18.40;99.90
12386;DHT22;6257;57.634;18.310;2022-08-19T02:35:02;18.40;99.90
12386;DHT22;6257;57.634;18.310;2022-08-19T02:37:30;18.40;99.90
12386;DHT22;6257;57.634;18.310;2022-08-19T02:40:14;18.40;99.90
12386;DHT22;6257;57.634;18.310;2022-08-19T02:42:43;18.40;99.90
12386;DHT22;6257;57.634;18.310;2022-08-19T02:45:12;18.40;99.90
12386;DHT22;6257;57.634;18.310;2022-08-19T02:47:40;18.40;99.90
12386;DHT22;6257;57.634;18.310;2022-08-19T02:50:08;18.40;99.90
12386;DHT22;6257;57.634;18.310;2022-08-19T02:52:35;18.40;99.90
12386;DHT22;6257;57.634;18.310;2022-08-19T02:55:04;18.40;99.90
12386;DHT22;6257;57.634;18.310;2022-08-19T02:57:31;18.50;99.90
12386;DHT22;6257;57.634;18.310;2022-08-19T02:59:59;18.50;99.90
12386;DHT22;6257;57.634;18.310;2022-08-19T03:02:28;18.60;99.90
12386;DHT22;6257;57.634;18.310;2022-08-19T03:04:56;18.60;99.90
12386;DHT22;6257;57.634;18.310;2022-08-19T03:07:23;18.60;99.90
12386;DHT22;6257;57.634;18.310;2022-08-19T03:09:50;18.70;99.90
12386;DHT22;6257;57.634;18.310;2022-08-19T03:12:17;18.70;99.90
12386;DHT22;6257;57.634;18.310;2022-08-19T03:14:44;18.70;99.90
12386;DHT22;6257;57.634;18.310;2022-08-19T03:17:12;18.70;99.90
12386;DHT22;6257;57.634;18.310;2022-08-19T03:19:40;18.70;99.90
12386;DHT22;6257;57.634;18.310;2022-08-19T03:22:08;18.70;99.90
12386;DHT22;6257;57.634;18.310;2022-08-19T03:24:35;18.70;99.90
12386;DHT22;6257;57.634;18.310;2022-08-19T03:27:03;18.70;99.90
12386;DHT22;6257;57.634;18.310;2022-08-19T03:29:31;18.60;99.90
12386;DHT22;6257;57.634;18.310;2022-08-19T03:31:59;18.60;99.90
12386;DHT22;6257;57.634;18.310;2022-08-19T03:34:29;18.60;99.90
12386;DHT22;6257;57.634;18.310;2022-08-19T03:37:02;18.60;99.90
12386;DHT22;6257;57.634;18.310;2022-08-19T03:39:30;18.60;99.90
12386;DHT22;6257;57.634;18.310;2022-08-19T03:41:57;18.60;99.90
12386;DHT22;6257;57.634;18.310;2022-08-19T03:44:29;18.60;99.90
12386;DHT22;6257;57.634;18.310;2022-08-19T03:46:59;18.70;99.90
12386;DHT22;6257;57.634;18.310;2022-08-19T03:49:28;18.70;99.90
12386;DHT22;6257;57.634;18.310;2022-08-19T03:51:58;18.70;99.90
12386;DHT22;6257;57.634;18.310;2022-08-19T03:54:26;18.70;99.90
12386;DHT22;6257;57.634;18.310;2022-08-19T03:56:55;18.70;99.90
12386;DHT22;6257;57.634;18.310;2022-08-19T03:59:25;18.70;99.90
12386;DHT22;6257;57.634;18.310;2022-08-19T04:01:54;18.80;99.90
12386;DHT22;6257;57.634;18.310;2022-08-19T04:04:21;18.80;99.90
12386;DHT22;6257;57.634;18.310;2022-08-19T04:06:48;18.90;99.90
12386;DHT22;6257;57.634;18.310;2022-08-19T04:09:18;19.00;99.90
12386;DHT22;6257;57.634;18.310;2022-08-19T04:11:47;19.00;99.90
12386;DHT22;6257;57.634;18.310;2022-08-19T04:14:17;19.00;99.90
12386;DHT22;6257;57.634;18.310;2022-08-19T04:16:45;19.10;99.90
12386;DHT22;6257;57.634;18.310;2022-08-19T04:19:13;19.10;99.90
12386;DHT22;6257;57.634;18.310;2022-08-19T04:21:43;19.20;99.90
12386;DHT22;6257;57.634;18.310;2022-08-19T04:24:10;19.20;99.90
12386;DHT22;6257;57.634;18.310;2022-08-19T04:26:39;19.30;99.90
12386;DHT22;6257;57.634;18.310;2022-08-19T04:29:09;19.30;99.90
12386;DHT22;6257;57.634;18.310;2022-08-19T04:31:37;19.30;99.90
12386;DHT22;6257;57.634;18.310;2022-08-19T04:34:06;19.30;99.90
12386;DHT22;6257;57.634;18.310;2022-08-19T04:36:35;19.30;99.90
12386;DHT22;6257;57.634;18.310;2022-08-19T04:39:06;19.30;99.90
12386;DHT22;6257;57.634;18.310;2022-08-19T04:41:34;19.30;99.90
12386;DHT22;6257;57.634;18.310;2022-08-19T04:44:20;19.30;99.90
12386;DHT22;6257;57.634;18.310;2022-08-19T04:46:48;19.30;99.90
12386;DHT22;6257;57.634;18.310;2022-08-19T04:49:17;19.40;99.90
12386;DHT22;6257;57.634;18.310;2022-08-19T04:51:46;19.40;99.90
12386;DHT22;6257;57.634;18.310;2022-08-19T04:54:15;19.40;99.90
12386;DHT22;6257;57.634;18.310;2022-08-19T04:56:43;19.50;99.90
12386;DHT22;6257;57.634;18.310;2022-08-19T04:59:10;19.50;99.90
12386;DHT22;6257;57.634;18.310;2022-08-19T05:01:39;19.50;99.90
12386;DHT22;6257;57.634;18.310;2022-08-19T05:04:06;19.50;99.90
12386;DHT22;6257;57.634;18.310;2022-08-19T05:06:34;19.60;99.90
12386;DHT22;6257;57.634;18.310;2022-08-19T05:09:03;19.60;99.90
12386;DHT22;6257;57.634;18.310;2022-08-19T05:11:33;19.60;99.90
12386;DHT22;6257;57.634;18.310;2022-08-19T05:14:01;19.70;99.90
12386;DHT22;6257;57.634;18.310;2022-08-19T05:16:28;19.70;99.90
12386;DHT22;6257;57.634;18.310;2022-08-19T05:18:56;19.80;99.90
12386;DHT22;6257;57.634;18.310;2022-08-19T05:21:49;19.80;99.90
12386;DHT22;6257;57.634;18.310;2022-08-19T05:24:48;19.90;99.90
12386;DHT22;6257;57.634;18.310;2022-08-19T05:27:16;20.00;99.90
12386;DHT22;6257;57.634;18.310;2022-08-19T05:29:43;20.20;99.90
12386;DHT22;6257;57.634;18.310;2022-08-19T05:32:10;20.30;99.90
12386;DHT22;6257;57.634;18.310;2022-08-19T05:34:38;20.40;99.90
12386;DHT22;6257;57.634;18.310;2022-08-19T05:37:06;20.50;99.90
12386;DHT22;6257;57.634;18.310;2022-08-19T05:39:36;20.60;99.90
12386;DHT22;6257;57.634;18.310;2022-08-19T05:42:06;20.60;99.90
12386;DHT22;6257;57.634;18.310;2022-08-19T05:44:36;20.80;99.90
12386;DHT22;6257;57.634;18.310;2022-08-19T05:47:06;20.80;99.90
12386;DHT22;6257;57.634;18.310;2022-08-19T05:49:35;20.90;99.90
12386;DHT22;6257;57.634;18.310;2022-08-19T05:52:06;20.90;99.90
12386;DHT22;6257;57.634;18.310;2022-08-19T05:54:34;21.00;99.90
12386;DHT22;6257;57.634;18.310;2022-08-19T05:57:02;21.10;99.90
12386;DHT22;6257;57.634;18.310;2022-08-19T05:59:29;21.10;99.90
12386;DHT22;6257;57.634;18.310;2022-08-19T06:01:57;21.20;99.90
12386;DHT22;6257;57.634;18.310;2022-08-19T06:04:26;21.20;99.90
12386;DHT22;6257;57.634;18.310;2022-08-19T06:06:54;21.30;99.90
12386;DHT22;6257;57.634;18.310;2022-08-19T06:09:23;21.30;99.90
12386;DHT22;6257;57.634;18.310;2022-08-19T06:11:52;21.20;99.90
12386;DHT22;6257;57.634;18.310;2022-08-19T06:14:21;21.30;99.90
12386;DHT22;6257;57.634;18.310;2022-08-19T06:16:49;21.40;99.90
12386;DHT22;6257;57.634;18.310;2022-08-19T06:19:19;21.40;99.90
12386;DHT22;6257;57.634;18.310;2022-08-19T06:21:48;21.50;99.90
12386;DHT22;6257;57.634;18.310;2022-08-19T06:24:22;21.50;99.90
12386;DHT22;6257;57.634;18.310;2022-08-19T06:26:53;21.60;99.90
12386;DHT22;6257;57.634;18.310;2022-08-19T06:29:22;21.60;99.90
12386;DHT22;6257;57.634;18.310;2022-08-19T06:31:52;21.70;99.90
12386;DHT22;6257;57.634;18.310;2022-08-19T06:34:20;21.70;99.90
12386;DHT22;6257;57.634;18.310;2022-08-19T06:36:49;21.70;99.90
12386;DHT22;6257;57.634;18.310;2022-08-19T06:39:20;21.80;99.90
12386;DHT22;6257;57.634;18.310;2022-08-19T06:41:48;21.90;99.90
12386;DHT22;6257;57.634;18.310;2022-08-19T06:44:18;21.90;99.90
12386;DHT22;6257;57.634;18.310;2022-08-19T06:46:45;22.00;99.90
12386;DHT22;6257;57.634;18.310;2022-08-19T06:49:13;22.10;99.90
12386;DHT22;6257;57.634;18.310;2022-08-19T06:51:41;22.20;99.90
12386;DHT22;6257;57.634;18.310;2022-08-19T06:54:09;22.20;99.90
12386;DHT22;6257;57.634;18.310;2022-08-19T06:56:37;22.40;99.90
12386;DHT22;6257;57.634;18.310;2022-08-19T06:59:06;22.50;99.90
12386;DHT22;6257;57.634;18.310;2022-08-19T07:01:37;22.50;99.90
12386;DHT22;6257;57.634;18.310;2022-08-19T07:04:05;22.60;99.90
12386;DHT22;6257;57.634;18.310;2022-08-19T07:06:34;22.70;99.90
12386;DHT22;6257;57.634;18.310;2022-08-19T07:09:02;22.80;99.90
12386;DHT22;6257;57.634;18.310;2022-08-19T07:11:30;22.90;99.90
12386;DHT22;6257;57.634;18.310;2022-08-19T07:13:58;23.00;99.90
12386;DHT22;6257;57.634;18.310;2022-08-19T07:16:25;23.10;99.90
12386;DHT22;6257;57.634;18.310;2022-08-19T07:18:55;23.20;99.90
12386;DHT22;6257;57.634;18.310;2022-08-19T07:21:24;23.30;99.90
12386;DHT22;6257;57.634;18.310;2022-08-19T07:23:52;23.40;99.90
12386;DHT22;6257;57.634;18.310;2022-08-19T07:26:23;23.50;99.90
12386;DHT22;6257;57.634;18.310;2022-08-19T07:28:51;23.50;99.90
12386;DHT22;6257;57.634;18.310;2022-08-19T07:31:19;23.60;99.90
12386;DHT22;6257;57.634;18.310;2022-08-19T07:33:49;23.60;99.90
12386;DHT22;6257;57.634;18.310;2022-08-19T07:36:20;23.70;99.90
12386;DHT22;6257;57.634;18.310;2022-08-19T07:38:49;23.80;99.90
12386;DHT22;6257;57.634;18.310;2022-08-19T07:41:19;23.90;99.90
12386;DHT22;6257;57.634;18.310;2022-08-19T07:43:47;24.00;99.90
12386;DHT22;6257;57.634;18.310;2022-08-19T07:46:15;24.10;99.90
12386;DHT22;6257;57.634;18.310;2022-08-19T07:48:44;24.20;99.90
12386;DHT22;6257;57.634;18.310;2022-08-19T07:51:15;24.30;99.90
12386;DHT22;6257;57.634;18.310;2022-08-19T07:53:44;24.30;99.90
12386;DHT22;6257;57.634;18.310;2022-08-19T07:56:12;24.30;99.90
12386;DHT22;6257;57.634;18.310;2022-08-19T07:58:42;24.40;99.90
12386;DHT22;6257;57.634;18.310;2022-08-19T08:01:11;24.60;99.90
12386;DHT22;6257;57.634;18.310;2022-08-19T08:03:40;24.70;99.90
12386;DHT22;6257;57.634;18.310;2022-08-19T08:06:25;24.90;99.90
12386;DHT22;6257;57.634;18.310;2022-08-19T08:09:12;24.90;99.90
12386;DHT22;6257;57.634;18.310;2022-08-19T08:11:44;24.80;99.90
12386;DHT22;6257;57.634;18.310;2022-08-19T08:14:15;24.90;99.90
12386;DHT22;6257;57.634;18.310;2022-08-19T08:16:42;25.10;99.90
12386;DHT22;6257;57.634;18.310;2022-08-19T08:19:11;25.20;99.90
12386;DHT22;6257;57.634;18.310;2022-08-19T08:21:41;25.20;99.90
12386;DHT22;6257;57.634;18.310;2022-08-19T08:24:08;25.30;99.90
12386;DHT22;6257;57.634;18.310;2022-08-19T08:26:37;25.30;99.90
12386;DHT22;6257;57.634;18.310;2022-08-19T08:29:04;25.30;99.90
12386;DHT22;6257;57.634;18.310;2022-08-19T08:31:33;25.40;99.90
12386;DHT22;6257;57.634;18.310;2022-08-19T08:34:00;25.50;99.90
12386;DHT22;6257;57.634;18.310;2022-08-19T08:36:28;25.70;99.90
12386;DHT22;6257;57.634;18.310;2022-08-19T08:38:59;26.00;99.90
12386;DHT22;6257;57.634;18.310;2022-08-19T08:41:30;26.20;99.90
12386;DHT22;6257;57.634;18.310;2022-08-19T08:44:00;26.20;99.90
12386;DHT22;6257;57.634;18.310;2022-08-19T08:46:35;26.30;99.90
12386;DHT22;6257;57.634;18.310;2022-08-19T08:49:15;26.50;99.90
12386;DHT22;6257;57.634;18.310;2022-08-19T08:51:47;26.70;99.90
12386;DHT22;6257;57.634;18.310;2022-08-19T08:54:20;26.90;99.90
12386;DHT22;6257;57.634;18.310;2022-08-19T08:56:49;27.00;99.90
12386;DHT22;6257;57.634;18.310;2022-08-19T08:59:21;27.10;99.90
12386;DHT22;6257;57.634;18.310;2022-08-19T09:01:50;27.20;99.90
12386;DHT22;6257;57.634;18.310;2022-08-19T09:04:17;27.30;99.90
12386;DHT22;6257;57.634;18.310;2022-08-19T09:06:49;27.40;99.90
12386;DHT22;6257;57.634;18.310;2022-08-19T09:09:23;27.60;99.90
12386;DHT22;6257;57.634;18.310;2022-08-19T09:11:58;27.60;99.90
12386;DHT22;6257;57.634;18.310;2022-08-19T09:14:36;27.70;99.90
12386;DHT22;6257;57.634;18.310;2022-08-19T09:17:07;27.70;99.90
12386;DHT22;6257;57.634;18.310;2022-08-19T09:19:46;27.70;99.90
12386;DHT22;6257;57.634;18.310;2022-08-19T09:22:14;27.50;99.90
12386;DHT22;6257;57.634;18.310;2022-08-19T09:24:42;27.40;99.90
12386;DHT22;6257;57.634;18.310;2022-08-19T09:27:09;27.30;99.90
12386;DHT22;6257;57.634;18.310;2022-08-19T09:29:37;27.20;99.90
12386;DHT22;6257;57.634;18.310;2022-08-19T09:32:04;27.10;99.90
12386;DHT22;6257;57.634;18.310;2022-08-19T09:34:32;27.20;99.90
12386;DHT22;6257;57.634;18.310;2022-08-19T09:36:59;27.40;99.90
12386;DHT22;6257;57.634;18.310;2022-08-19T09:39:26;27.50;99.90
12386;DHT22;6257;57.634;18.310;2022-08-19T09:41:53;27.60;99.90
12386;DHT22;6257;57.634;18.310;2022-08-19T09:44:20;27.70;99.90
12386;DHT22;6257;57.634;18.310;2022-08-19T09:46:49;27.80;99.90
12386;DHT22;6257;57.634;18.310;2022-08-19T09:49:17;27.10;99.90
12386;DHT22;6257;57.634;18.310;2022-08-19T09:51:45;28.00;99.90
12386;DHT22;6257;57.634;18.310;2022-08-19T09:54:15;28.00;99.90
12386;DHT22;6257;57.634;18.310;2022-08-19T09:56:42;28.00;99.90
12386;DHT22;6257;57.634;18.310;2022-08-19T09:59:10;28.00;99.90
12386;DHT22;6257;57.634;18.310;2022-08-19T10:01:38;27.90;99.90
12386;DHT22;6257;57.634;18.310;2022-08-19T10:04:07;27.90;99.90
12386;DHT22;6257;57.634;18.310;2022-08-19T10:06:36;28.00;99.90
12386;DHT22;6257;57.634;18.310;2022-08-19T10:09:05;28.00;99.90
12386;DHT22;6257;57.634;18.310;2022-08-19T10:11:33;28.10;99.90
12386;DHT22;6257;57.634;18.310;2022-08-19T10:14:04;28.20;99.90
12386;DHT22;6257;57.634;18.310;2022-08-19T10:16:33;28.10;99.90
12386;DHT22;6257;57.634;18.310;2022-08-19T10:19:00;28.10;99.90
12386;DHT22;6257;57.634;18.310;2022-08-19T10:21:30;28.10;99.90
12386;DHT22;6257;57.634;18.310;2022-08-19T10:23:59;28.10;99.90
12386;DHT22;6257;57.634;18.310;2022-08-19T10:26:29;28.10;99.90
12386;DHT22;6257;57.634;18.310;2022-08-19T10:28:57;28.20;99.90
12386;DHT22;6257;57.634;18.310;2022-08-19T10:31:27;28.20;99.90
12386;DHT22;6257;57.634;18.310;2022-08-19T10:33:55;28.30;99.90
12386;DHT22;6257;57.634;18.310;2022-08-19T10:36:26;28.40;99.90
12386;DHT22;6257;57.634;18.310;2022-08-19T10:38:58;28.50;99.90
12386;DHT22;6257;57.634;18.310;2022-08-19T10:41:29;28.60;99.90
12386;DHT22;6257;57.634;18.310;2022-08-19T10:43:59;28.60;99.90
12386;DHT22;6257;57.634;18.310;2022-08-19T10:46:28;28.70;99.90
12386;DHT22;6257;57.634;18.310;2022-08-19T10:48:58;28.80;99.90
12386;DHT22;6257;57.634;18.310;2022-08-19T10:51:26;28.90;99.90
12386;DHT22;6257;57.634;18.310;2022-08-19T10:54:12;28.90;99.90
12386;DHT22;6257;57.634;18.310;2022-08-19T10:56:39;29.00;99.90
12386;DHT22;6257;57.634;18.310;2022-08-19T10:59:18;29.00;99.90
12386;DHT22;6257;57.634;18.310;2022-08-19T11:01:46;29.10;99.90
12386;DHT22;6257;57.634;18.310;2022-08-19T11:04:13;29.20;99.90
12386;DHT22;6257;57.634;18.310;2022-08-19T11:06:43;29.30;99.90
12386;DHT22;6257;57.634;18.310;2022-08-19T11:09:15;29.30;99.90
12386;DHT22;6257;57.634;18.310;2022-08-19T11:11:43;29.20;99.90
12386;DHT22;6257;57.634;18.310;2022-08-19T11:14:12;29.10;99.90
12386;DHT22;6257;57.634;18.310;2022-08-19T11:16:41;29.00;99.90
12386;DHT22;6257;57.634;18.310;2022-08-19T11:19:10;29.00;99.90
12386;DHT22;6257;57.634;18.310;2022-08-19T11:21:40;28.90;99.90
12386;DHT22;6257;57.634;18.310;2022-08-19T11:24:10;28.80;99.90
12386;DHT22;6257;57.634;18.310;2022-08-19T11:26:40;28.70;99.90
12386;DHT22;6257;57.634;18.310;2022-08-19T11:29:09;28.80;99.90
12386;DHT22;6257;57.634;18.310;2022-08-19T11:31:39;28.80;99.90
12386;DHT22;6257;57.634;18.310;2022-08-19T11:34:08;28.90;99.90
12386;DHT22;6257;57.634;18.310;2022-08-19T11:36:38;28.90;99.90
12386;DHT22;6257;57.634;18.310;2022-08-19T11:39:07;28.70;99.90
12386;DHT22;6257;57.634;18.310;2022-08-19T11:41:35;28.70;99.90
12386;DHT22;6257;57.634;18.310;2022-08-19T11:44:04;28.60;99.90
12386;DHT22;6257;57.634;18.310;2022-08-19T11:46:34;28.50;99.90
12386;DHT22;6257;57.634;18.310;2022-08-19T11:49:03;28.40;99.90
12386;DHT22;6257;57.634;18.310;2022-08-19T11:51:31;28.40;99.90
12386;DHT22;6257;57.634;18.310;2022-08-19T11:53:59;28.50;99.90
12386;DHT22;6257;57.634;18.310;2022-08-19T11:56:27;28.80;99.90
12386;DHT22;6257;57.634;18.310;2022-08-19T11:58:55;28.90;99.90
12386;DHT22;6257;57.634;18.310;2022-08-19T12:01:26;29.00;99.90
12386;DHT22;6257;57.634;18.310;2022-08-19T12:03:55;29.10;99.90
12386;DHT22;6257;57.634;18.310;2022-08-19T12:06:24;29.30;99.90
12386;DHT22;6257;57.634;18.310;2022-08-19T12:08:54;29.30;99.90
12386;DHT22;6257;57.634;18.310;2022-08-19T12:11:22;29.40;99.90
12386;DHT22;6257;57.634;18.310;2022-08-19T12:13:50;29.40;99.90
12386;DHT22;6257;57.634;18.310;2022-08-19T12:16:20;29.40;99.90
12386;DHT22;6257;57.634;18.310;2022-08-19T12:18:50;29.40;99.90
12386;DHT22;6257;57.634;18.310;2022-08-19T12:21:20;29.40;99.90
12386;DHT22;6257;57.634;18.310;2022-08-19T12:23:49;29.40;99.90
12386;DHT22;6257;57.634;18.310;2022-08-19T12:26:17;29.10;99.90
12386;DHT22;6257;57.634;18.310;2022-08-19T12:28:44;28.90;99.90
12386;DHT22;6257;57.634;18.310;2022-08-19T12:31:14;28.80;99.90
12386;DHT22;6257;57.634;18.310;2022-08-19T12:33:42;28.70;99.90
12386;DHT22;6257;57.634;18.310;2022-08-19T12:36:13;28.70;99.90
12386;DHT22;6257;57.634;18.310;2022-08-19T12:38:41;28.80;99.90
12386;DHT22;6257;57.634;18.310;2022-08-19T12:41:11;28.80;99.90
12386;DHT22;6257;57.634;18.310;2022-08-19T12:43:38;27.20;99.90
12386;DHT22;6257;57.634;18.310;2022-08-19T12:46:07;29.00;99.90
12386;DHT22;6257;57.634;18.310;2022-08-19T12:48:35;29.10;99.90
12386;DHT22;6257;57.634;18.310;2022-08-19T12:51:07;29.10;99.90
12386;DHT22;6257;57.634;18.310;2022-08-19T12:53:36;29.10;99.90
12386;DHT22;6257;57.634;18.310;2022-08-19T12:56:03;29.10;99.90
12386;DHT22;6257;57.634;18.310;2022-08-19T12:58:30;29.10;99.90
12386;DHT22;6257;57.634;18.310;2022-08-19T13:01:02;29.20;99.90
12386;DHT22;6257;57.634;18.310;2022-08-19T13:03:32;29.30;99.90
12386;DHT22;6257;57.634;18.310;2022-08-19T13:05:59;29.30;99.90
12386;DHT22;6257;57.634;18.310;2022-08-19T13:08:26;29.20;99.90
12386;DHT22;6257;57.634;18.310;2022-08-19T13:10:54;29.20;99.90
12386;DHT22;6257;57.634;18.310;2022-08-19T13:13:21;29.10;99.90
12386;DHT22;6257;57.634;18.310;2022-08-19T13:15:51;29.00;99.90
12386;DHT22;6257;57.634;18.310;2022-08-19T13:18:18;28.90;99.90
12386;DHT22;6257;57.634;18.310;2022-08-19T13:20:45;28.90;99.90
12386;DHT22;6257;57.634;18.310;2022-08-19T13:23:12;29.00;99.90
12386;DHT22;6257;57.634;18.310;2022-08-19T13:25:40;29.00;99.90
12386;DHT22;6257;57.634;18.310;2022-08-19T13:28:08;29.00;99.90
12386;DHT22;6257;57.634;18.310;2022-08-19T13:30:35;28.90;99.90
12386;DHT22;6257;57.634;18.310;2022-08-19T13:33:20;28.90;99.90
12386;DHT22;6257;57.634;18.310;2022-08-19T13:35:48;28.90;99.90
12386;DHT22;6257;57.634;18.310;2022-08-19T13:38:18;28.90;99.90
12386;DHT22;6257;57.634;18.310;2022-08-19T13:40:47;28.80;99.90
12386;DHT22;6257;57.634;18.310;2022-08-19T13:43:17;28.80;99.90
12386;DHT22;6257;57.634;18.310;2022-08-19T13:45:45;28.80;99.90
12386;DHT22;6257;57.634;18.310;2022-08-19T13:48:12;28.70;99.90
12386;DHT22;6257;57.634;18.310;2022-08-19T13:50:41;28.70;99.90
12386;DHT22;6257;57.634;18.310;2022-08-19T13:53:09;28.70;99.90
12386;DHT22;6257;57.634;18.310;2022-08-19T13:55:38;28.60;99.90
12386;DHT22;6257;57.634;18.310;2022-08-19T13:58:05;28.50;99.90
12386;DHT22;6257;57.634;18.310;2022-08-19T14:00:36;28.50;99.90
12386;DHT22;6257;57.634;18.310;2022-08-19T14:03:03;28.50;99.90
12386;DHT22;6257;57.634;18.310;2022-08-19T14:05:32;28.40;99.90
12386;DHT22;6257;57.634;18.310;2022-08-19T14:07:59;28.40;99.90
12386;DHT22;6257;57.634;18.310;2022-08-19T14:10:27;28.40;99.90
12386;DHT22;6257;57.634;18.310;2022-08-19T14:12:57;28.40;99.90
12386;DHT22;6257;57.634;18.310;2022-08-19T14:15:25;28.50;99.90
12386;DHT22;6257;57.634;18.310;2022-08-19T14:17:53;28.40;99.90
12386;DHT22;6257;57.634;18.310;2022-08-19T14:20:21;28.40;99.90
12386;DHT22;6257;57.634;18.310;2022-08-19T14:22:49;28.30;99.90
12386;DHT22;6257;57.634;18.310;2022-08-19T14:25:18;28.30;99.90
12386;DHT22;6257;57.634;18.310;2022-08-19T14:27:45;28.30;99.90
12386;DHT22;6257;57.634;18.310;2022-08-19T14:30:15;28.30;99.90
12386;DHT22;6257;57.634;18.310;2022-08-19T14:32:42;28.20;99.90
12386;DHT22;6257;57.634;18.310;2022-08-19T14:35:12;28.30;99.90
12386;DHT22;6257;57.634;18.310;2022-08-19T14:37:40;28.30;99.90
12386;DHT22;6257;57.634;18.310;2022-08-19T14:40:08;28.40;99.90
12386;DHT22;6257;57.634;18.310;2022-08-19T14:42:35;28.40;99.90
12386;DHT22;6257;57.634;18.310;2022-08-19T14:45:03;28.40;99.90
12386;DHT22;6257;57.634;18.310;2022-08-19T14:47:31;28.50;99.90
12386;DHT22;6257;57.634;18.310;2022-08-19T14:49:59;28.50;99.90
12386;DHT22;6257;57.634;18.310;2022-08-19T14:52:28;28.50;99.90
12386;DHT22;6257;57.634;18.310;2022-08-19T14:54:55;28.50;99.90
12386;DHT22;6257;57.634;18.310;2022-08-19T14:57:22;28.50;99.90
12386;DHT22;6257;57.634;18.310;2022-08-19T14:59:49;28.50;99.90
12386;DHT22;6257;57.634;18.310;2022-08-19T15:02:16;28.50;99.90
12386;DHT22;6257;57.634;18.310;2022-08-19T15:04:43;28.40;99.90
12386;DHT22;6257;57.634;18.310;2022-08-19T15:07:10;28.30;99.90
12386;DHT22;6257;57.634;18.310;2022-08-19T15:09:39;28.30;99.90
12386;DHT22;6257;57.634;18.310;2022-08-19T15:12:07;28.30;99.90
12386;DHT22;6257;57.634;18.310;2022-08-19T15:14:36;28.30;99.90
12386;DHT22;6257;57.634;18.310;2022-08-19T15:17:04;28.30;99.90
12386;DHT22;6257;57.634;18.310;2022-08-19T15:19:32;28.20;99.90
12386;DHT22;6257;57.634;18.310;2022-08-19T15:22:01;28.20;99.90
12386;DHT22;6257;57.634;18.310;2022-08-19T15:24:28;28.20;99.90
12386;DHT22;6257;57.634;18.310;2022-08-19T15:26:57;28.10;99.90
12386;DHT22;6257;57.634;18.310;2022-08-19T15:29:24;28.10;99.90
12386;DHT22;6257;57.634;18.310;2022-08-19T15:31:53;28.00;99.90
12386;DHT22;6257;57.634;18.310;2022-08-19T15:34:22;27.90;99.90
12386;DHT22;6257;57.634;18.310;2022-08-19T15:36:50;27.90;99.90
12386;DHT22;6257;57.634;18.310;2022-08-19T15:39:17;27.80;99.90
12386;DHT22;6257;57.634;18.310;2022-08-19T15:41:45;27.70;99.90